Time;durP1;ratioP1;P1;durP2;ratioP2;P2;SDS_P1;SDS_P2;PMS_P1;PMS_P2;Temp;Humidity;BMP_temperature;BMP_pressure;BME280_temperature;BME280_humidity;BME280_pressure;Samples;Min_cycle;Max_cycle;Signal;HPM_P1;HPM_P2
2022/07/18 00:01:13;;;;;;;7.40;2.33;;;19.20;52.00;;;;;;4996231;28;20483;-80
2022/07/18 00:03:41;;;;;;;4.87;1.63;;;19.10;52.10;;;;;;5004584;28;20468;-80
2022/07/18 00:06:10;;;;;;;6.50;2.53;;;19.10;52.20;;;;;;5006310;28;20499;-81
2022/07/18 00:08:38;;;;;;;4.60;1.90;;;19.00;52.40;;;;;;4999818;28;20453;-80
2022/07/18 00:11:06;;;;;;;5.10;1.57;;;19.00;52.70;;;;;;4992485;28;20474;-80
2022/07/18 00:13:34;;;;;;;5.83;1.63;;;19.00;52.70;;;;;;4988760;28;20471;-79
2022/07/18 00:16:02;;;;;;;5.00;2.07;;;19.10;52.80;;;;;;5003524;28;20483;-80
2022/07/18 00:18:30;;;;;;;4.70;1.50;;;19.10;52.80;;;;;;5009066;28;20465;-81
2022/07/18 00:20:58;;;;;;;6.77;1.83;;;19.10;52.90;;;;;;5008654;28;21111;-80
2022/07/18 00:23:27;;;;;;;4.43;1.40;;;19.10;53.00;;;;;;5009879;28;20464;-80
2022/07/18 00:25:55;;;;;;;6.60;2.03;;;19.10;53.10;;;;;;5010950;28;20493;-80
2022/07/18 00:28:23;;;;;;;7.20;2.07;;;19.10;53.20;;;;;;5008109;28;20456;-79
2022/07/18 00:30:51;;;;;;;8.20;1.67;;;19.00;53.20;;;;;;5008902;28;20482;-81
2022/07/18 00:33:19;;;;;;;4.93;1.73;;;19.00;53.50;;;;;;5005547;28;20546;-81
2022/07/18 00:35:47;;;;;;;6.20;1.67;;;19.00;53.50;;;;;;5010596;28;20470;-80
2022/07/18 00:38:16;;;;;;;4.00;1.30;;;19.00;53.50;;;;;;5011949;28;20494;-80
2022/07/18 00:40:45;;;;;;;4.53;2.10;;;19.00;53.60;;;;;;5011311;28;20457;-81
2022/07/18 00:43:13;;;;;;;4.20;1.60;;;19.00;53.60;;;;;;5007657;28;20549;-80
2022/07/18 00:45:45;;;;;;;9.83;1.97;;;19.00;53.70;;;;;;5008891;28;20478;-81
2022/07/18 00:48:14;;;;;;;3.97;1.30;;;19.00;53.80;;;;;;5006816;28;20944;-80
2022/07/18 00:50:43;;;;;;;4.70;1.60;;;19.00;53.80;;;;;;5007050;28;20490;-81
2022/07/18 00:53:12;;;;;;;6.70;1.97;;;19.00;53.90;;;;;;5003871;28;20466;-80
2022/07/18 00:55:42;;;;;;;4.90;1.30;;;18.90;54.00;;;;;;5006601;28;20491;-81
2022/07/18 00:58:13;;;;;;;5.47;1.60;;;18.80;54.00;;;;;;5009394;28;20455;-80
2022/07/18 01:03:29;;;;;;;4.47;1.60;;;18.80;54.30;;;;;;5002255;28;20474;-80
2022/07/18 01:05:57;;;;;;;6.50;1.87;;;18.70;54.30;;;;;;5002937;28;20491;-80
2022/07/18 01:08:27;;;;;;;5.00;1.70;;;18.70;54.20;;;;;;5012164;28;20476;-81
2022/07/18 01:10:55;;;;;;;6.60;1.70;;;18.60;54.30;;;;;;5008898;28;20458;-78
2022/07/18 01:13:25;;;;;;;7.40;2.03;;;18.50;54.50;;;;;;4990579;28;20472;-79
2022/07/18 01:15:53;;;;;;;5.90;1.50;;;18.50;54.60;;;;;;5002659;28;20567;-79
2022/07/18 01:18:21;;;;;;;4.30;1.43;;;18.50;54.60;;;;;;5005892;28;20461;-79
2022/07/18 01:20:51;;;;;;;4.23;1.50;;;18.50;54.70;;;;;;5006962;28;20470;-79
2022/07/18 01:23:19;;;;;;;5.00;1.63;;;18.50;54.80;;;;;;5006104;28;20451;-79
2022/07/18 01:25:47;;;;;;;7.07;1.80;;;18.40;54.90;;;;;;5006269;28;20490;-80
2022/07/18 01:28:15;;;;;;;4.30;1.50;;;18.40;55.00;;;;;;5005516;28;20473;-80
2022/07/18 01:30:43;;;;;;;5.27;1.87;;;18.40;55.10;;;;;;4991828;28;20475;-80
2022/07/18 01:33:11;;;;;;;8.63;1.97;;;18.40;55.10;;;;;;4994569;28;20453;-81
2022/07/18 01:35:39;;;;;;;3.87;1.33;;;18.40;55.10;;;;;;5008002;28;20485;-80
2022/07/18 01:38:08;;;;;;;7.10;1.43;;;18.40;55.10;;;;;;5006906;28;20449;-81
2022/07/18 01:40:37;;;;;;;5.33;1.70;;;18.40;55.10;;;;;;5006768;28;20464;-81
2022/07/18 01:43:04;;;;;;;4.33;1.80;;;18.30;55.10;;;;;;5005085;28;20450;-81
2022/07/18 01:45:32;;;;;;;13.13;2.23;;;18.30;55.10;;;;;;5005745;28;20526;-80
2022/07/18 01:48:00;;;;;;;11.57;1.80;;;18.20;55.30;;;;;;5008029;28;20459;-81
2022/07/18 01:50:28;;;;;;;7.10;2.07;;;18.20;55.30;;;;;;5005126;28;20477;-80
2022/07/18 01:52:56;;;;;;;5.77;1.80;;;18.10;55.20;;;;;;4998705;28;20865;-81
2022/07/18 01:55:26;;;;;;;5.63;1.80;;;18.10;55.30;;;;;;4999957;28;20466;-79
2022/07/18 01:57:54;;;;;;;6.60;1.83;;;18.00;55.40;;;;;;5003579;28;21016;-79
2022/07/18 02:00:21;;;;;;;4.57;1.60;;;18.00;55.40;;;;;;5001982;28;20458;-79
2022/07/18 02:02:49;;;;;;;4.50;1.63;;;18.00;55.40;;;;;;4995256;28;20460;-78
2022/07/18 02:05:18;;;;;;;5.47;2.20;;;18.00;55.30;;;;;;5005718;28;21032;-79
2022/07/18 02:07:46;;;;;;;6.83;2.10;;;17.90;55.30;;;;;;5003590;28;20457;-79
2022/07/18 02:10:16;;;;;;;4.03;1.63;;;17.80;55.40;;;;;;5004788;28;20461;-79
2022/07/18 02:12:46;;;;;;;5.80;2.13;;;17.70;55.40;;;;;;5003378;28;20468;-79
2022/07/18 02:15:16;;;;;;;4.60;1.63;;;17.70;55.50;;;;;;5004580;28;20472;-79
2022/07/18 02:17:44;;;;;;;8.63;1.70;;;17.60;55.60;;;;;;5006235;28;20453;-80
2022/07/18 02:20:14;;;;;;;5.90;2.17;;;17.60;55.60;;;;;;5001452;28;20474;-79
2022/07/18 02:22:43;;;;;;;10.53;2.30;;;17.50;55.70;;;;;;5009633;28;20489;-79
2022/07/18 02:25:12;;;;;;;7.17;2.40;;;17.40;55.70;;;;;;5004916;28;20477;-78
2022/07/18 02:27:40;;;;;;;4.90;1.60;;;17.40;55.90;;;;;;4994861;28;20962;-79
2022/07/18 02:30:11;;;;;;;6.57;1.87;;;17.40;55.90;;;;;;4998962;28;20462;-78
2022/07/18 02:32:39;;;;;;;5.03;1.73;;;17.40;56.00;;;;;;5004196;28;20460;-79
2022/07/18 02:35:09;;;;;;;6.17;1.70;;;17.30;56.10;;;;;;5005929;28;20483;-79
2022/07/18 02:37:40;;;;;;;7.60;1.70;;;17.30;56.10;;;;;;5004601;28;20457;-79
2022/07/18 02:40:10;;;;;;;3.67;1.50;;;17.20;56.20;;;;;;5003238;28;20461;-79
2022/07/18 02:42:39;;;;;;;4.97;2.07;;;17.10;56.30;;;;;;5000738;28;20463;-79
2022/07/18 02:45:09;;;;;;;4.73;1.80;;;17.10;56.50;;;;;;4992052;28;20966;-78
2022/07/18 02:47:37;;;;;;;5.20;1.90;;;17.10;56.50;;;;;;5007046;28;20485;-80
2022/07/18 02:50:06;;;;;;;6.57;1.80;;;17.20;56.60;;;;;;4995585;28;20473;-81
2022/07/18 02:52:34;;;;;;;5.17;1.93;;;17.20;56.70;;;;;;5005639;28;20950;-80
2022/07/18 02:55:03;;;;;;;6.83;2.27;;;17.20;56.70;;;;;;5003670;28;20469;-79
2022/07/18 02:57:31;;;;;;;7.90;2.60;;;17.30;56.80;;;;;;5004052;28;20450;-80
2022/07/18 02:59:59;;;;;;;5.93;2.20;;;17.30;56.80;;;;;;5004757;28;20456;-80
2022/07/18 03:02:29;;;;;;;4.80;1.60;;;17.30;56.70;;;;;;5000029;28;20545;-80
2022/07/18 03:04:56;;;;;;;4.30;1.70;;;17.20;56.50;;;;;;5000733;28;20460;-79
2022/07/18 03:07:24;;;;;;;7.20;2.60;;;17.10;56.50;;;;;;5003793;28;20815;-80
2022/07/18 03:09:52;;;;;;;4.53;2.00;;;17.00;56.70;;;;;;5002856;28;20450;-80
2022/07/18 03:12:20;;;;;;;5.63;2.07;;;17.00;56.80;;;;;;5004079;28;21023;-79
2022/07/18 03:14:49;;;;;;;4.33;1.80;;;17.00;56.80;;;;;;5006137;28;20467;-80
2022/07/18 03:17:17;;;;;;;5.53;1.90;;;17.00;56.90;;;;;;5007061;28;20480;-80
2022/07/18 03:19:46;;;;;;;5.97;2.27;;;17.00;57.10;;;;;;5005571;28;20460;-79
2022/07/18 03:22:14;;;;;;;5.77;1.90;;;17.10;57.10;;;;;;4990275;28;20994;-80
2022/07/18 03:24:42;;;;;;;5.13;2.10;;;17.10;57.00;;;;;;5004452;28;20465;-80
2022/07/18 03:27:10;;;;;;;5.33;1.67;;;17.10;57.10;;;;;;5005928;28;20501;-80
2022/07/18 03:29:38;;;;;;;6.70;1.70;;;17.00;57.00;;;;;;5008382;28;20965;-79
2022/07/18 03:32:06;;;;;;;5.60;1.70;;;16.90;57.10;;;;;;5002848;28;20511;-80
2022/07/18 03:34:34;;;;;;;6.47;2.03;;;16.90;57.20;;;;;;4992152;28;20457;-80
2022/07/18 03:37:04;;;;;;;4.53;1.67;;;16.90;57.30;;;;;;5001268;28;20505;-80
2022/07/18 03:39:32;;;;;;;4.40;1.90;;;16.90;57.40;;;;;;5005287;28;20448;-80
2022/07/18 03:42:00;;;;;;;8.77;2.23;;;17.00;57.50;;;;;;4999599;28;20579;-80
2022/07/18 03:44:27;;;;;;;7.77;2.03;;;17.00;57.50;;;;;;4999706;28;20552;-79
2022/07/18 03:46:55;;;;;;;7.77;1.90;;;17.00;57.60;;;;;;5004375;28;20520;-79
2022/07/18 03:49:23;;;;;;;6.90;2.20;;;17.00;57.60;;;;;;5004453;28;20473;-79
2022/07/18 03:51:55;;;;;;;7.70;2.23;;;17.00;57.60;;;;;;5004571;28;20448;-79
2022/07/18 03:54:24;;;;;;;6.80;2.33;;;16.90;57.60;;;;;;5008676;28;20816;-79
2022/07/18 03:56:52;;;;;;;8.10;2.37;;;16.90;57.70;;;;;;5006629;28;21064;-79
2022/07/18 03:59:20;;;;;;;5.10;2.30;;;16.90;57.70;;;;;;5010265;28;20459;-81
2022/07/18 04:01:48;;;;;;;8.03;2.80;;;16.90;57.80;;;;;;5008259;28;20495;-80
2022/07/18 04:04:16;;;;;;;9.90;3.47;;;16.90;57.90;;;;;;5006602;28;20485;-80
2022/07/18 04:06:44;;;;;;;6.00;2.10;;;16.90;57.90;;;;;;5004081;28;20512;-77
2022/07/18 04:09:12;;;;;;;4.73;1.67;;;16.80;58.00;;;;;;5011813;28;20465;-76
2022/07/18 04:11:41;;;;;;;7.33;2.53;;;16.80;58.00;;;;;;4994237;28;20854;-75
2022/07/18 04:14:09;;;;;;;8.63;2.30;;;16.80;58.10;;;;;;4994525;28;20579;-77
2022/07/18 04:16:37;;;;;;;6.90;2.27;;;16.80;58.20;;;;;;5005619;28;20590;-77
2022/07/18 04:19:05;;;;;;;5.50;2.10;;;16.80;58.30;;;;;;5005945;28;20519;-77
2022/07/18 04:21:34;;;;;;;5.97;2.40;;;16.80;58.40;;;;;;5006065;28;20496;-76
2022/07/18 04:24:02;;;;;;;9.53;2.10;;;16.90;58.50;;;;;;4994791;28;20861;-76
2022/07/18 04:26:30;;;;;;;6.90;2.63;;;16.90;58.40;;;;;;5006586;28;20488;-77
2022/07/18 04:29:00;;;;;;;7.73;2.33;;;17.00;58.50;;;;;;5003937;28;20461;-77
2022/07/18 04:31:28;;;;;;;5.70;2.47;;;17.10;58.70;;;;;;5005365;28;20492;-76
2022/07/18 04:33:56;;;;;;;10.90;2.90;;;17.20;58.70;;;;;;5004104;28;20479;-75
2022/07/18 04:36:25;;;;;;;7.53;2.43;;;17.30;58.60;;;;;;5002353;28;20476;-75
2022/07/18 04:38:53;;;;;;;5.47;2.07;;;17.40;58.50;;;;;;5003373;28;20456;-76
2022/07/18 04:41:24;;;;;;;16.37;2.40;;;17.40;58.40;;;;;;5006368;28;20465;-77
2022/07/18 04:43:52;;;;;;;6.30;2.20;;;17.50;58.50;;;;;;4985824;28;20474;-75
2022/07/18 04:46:22;;;;;;;6.70;2.67;;;17.70;58.50;;;;;;5004930;28;20493;-76
2022/07/18 04:48:50;;;;;;;5.50;2.40;;;17.80;58.50;;;;;;5005521;28;20477;-75
2022/07/18 04:51:18;;;;;;;7.20;2.03;;;18.00;58.40;;;;;;5005442;28;20465;-76
2022/07/18 04:53:46;;;;;;;6.13;2.50;;;18.10;58.30;;;;;;5005183;28;20827;-76
2022/07/18 04:56:14;;;;;;;6.00;2.87;;;18.30;58.20;;;;;;4992422;28;20997;-76
2022/07/18 04:58:42;;;;;;;5.60;2.23;;;18.40;58.00;;;;;;5006736;28;20451;-76
2022/07/18 05:01:10;;;;;;;6.87;2.63;;;18.60;58.00;;;;;;5006237;28;20489;-76
2022/07/18 05:03:39;;;;;;;4.73;2.30;;;18.80;57.80;;;;;;5004488;28;20482;-76
2022/07/18 05:06:07;;;;;;;5.00;2.17;;;18.90;57.60;;;;;;5005026;28;20486;-76
2022/07/18 05:08:35;;;;;;;6.93;2.93;;;19.00;57.60;;;;;;5007749;28;20484;-76
2022/07/18 05:11:03;;;;;;;7.47;3.10;;;19.00;57.40;;;;;;5009070;28;20454;-76
2022/07/18 05:13:31;;;;;;;8.30;2.70;;;19.10;57.40;;;;;;5008327;28;20475;-76
2022/07/18 05:15:59;;;;;;;6.50;2.93;;;19.20;57.40;;;;;;5005301;28;20500;-76
2022/07/18 05:18:27;;;;;;;6.53;2.37;;;19.40;57.50;;;;;;5002657;28;21049;-76
2022/07/18 05:20:56;;;;;;;8.43;2.57;;;19.60;57.50;;;;;;5008082;28;20455;-76
2022/07/18 05:23:25;;;;;;;16.00;2.67;;;19.80;57.30;;;;;;5004489;28;20471;-76
2022/07/18 05:25:53;;;;;;;7.30;3.13;;;20.00;56.90;;;;;;4993816;28;20478;-76
2022/07/18 05:28:20;;;;;;;6.10;1.97;;;20.20;56.80;;;;;;5013716;28;20893;-76
2022/07/18 05:30:48;;;;;;;7.23;2.30;;;20.40;56.70;;;;;;5006701;28;20476;-76
2022/07/18 05:33:16;;;;;;;8.63;2.47;;;20.50;56.80;;;;;;5006129;28;20517;-74
2022/07/18 05:35:44;;;;;;;8.70;2.20;;;20.80;57.20;;;;;;5008362;28;20476;-76
2022/07/18 05:38:14;;;;;;;8.87;2.13;;;21.30;57.10;;;;;;5017788;28;20446;-76
2022/07/18 05:40:42;;;;;;;5.97;2.13;;;22.30;56.10;;;;;;5001717;28;20462;-77
2022/07/18 05:43:10;;;;;;;5.33;1.80;;;23.60;54.30;;;;;;5008501;28;20456;-76
2022/07/18 05:45:38;;;;;;;7.87;2.20;;;24.90;52.70;;;;;;4997270;28;20554;-76
2022/07/18 05:48:07;;;;;;;5.40;2.20;;;26.10;51.00;;;;;;5012102;28;20489;-76
2022/07/18 05:50:35;;;;;;;7.40;3.07;;;27.10;49.80;;;;;;5011588;28;20469;-74
2022/07/18 05:53:03;;;;;;;8.73;2.10;;;28.10;48.70;;;;;;5011641;28;20472;-78
2022/07/18 05:55:32;;;;;;;6.30;1.93;;;28.90;47.80;;;;;;5009442;28;20477;-76
2022/07/18 05:58:00;;;;;;;6.30;2.13;;;29.70;46.90;;;;;;5012596;28;20990;-78
2022/07/18 06:00:29;;;;;;;5.83;2.07;;;30.30;46.20;;;;;;5008067;28;20496;-76
2022/07/18 06:02:57;;;;;;;6.90;1.80;;;30.90;45.50;;;;;;5006409;28;20474;-77
2022/07/18 06:05:25;;;;;;;6.83;2.10;;;31.50;44.70;;;;;;4998490;28;20534;-77
2022/07/18 06:07:55;;;;;;;5.90;1.90;;;32.00;43.90;;;;;;5004334;28;20993;-77
2022/07/18 06:10:24;;;;;;;5.27;1.83;;;;;;;;;;5004011;28;20468;-77
2022/07/18 06:12:55;;;;;;;5.93;1.70;;;32.50;42.70;;;;;;5001053;28;20468;-77
2022/07/18 06:15:23;;;;;;;7.40;1.90;;;32.80;42.30;;;;;;5003266;28;20494;-77
2022/07/18 06:17:51;;;;;;;4.67;1.40;;;33.20;41.50;;;;;;5001963;28;20472;-77
2022/07/18 06:20:20;;;;;;;4.60;1.63;;;33.10;40.80;;;;;;5002713;28;20475;-77
2022/07/18 06:22:48;;;;;;;4.30;1.47;;;32.50;41.00;;;;;;5003992;28;20472;-77
2022/07/18 06:25:16;;;;;;;5.63;1.40;;;31.80;41.40;;;;;;5001367;28;20511;-77
2022/07/18 06:27:44;;;;;;;4.83;1.60;;;31.00;41.70;;;;;;5001547;28;20468;-77
2022/07/18 06:30:14;;;;;;;5.70;1.77;;;30.20;42.00;;;;;;5005302;28;20456;-77
2022/07/18 06:32:43;;;;;;;4.20;1.30;;;29.40;42.30;;;;;;5002609;28;20467;-77
2022/07/18 06:35:11;;;;;;;5.10;1.53;;;28.60;42.40;;;;;;5004325;28;20495;-77
2022/07/18 06:37:39;;;;;;;4.60;1.53;;;27.70;42.90;;;;;;5003005;28;20526;-77
2022/07/18 06:40:08;;;;;;;5.93;1.70;;;26.90;43.50;;;;;;5003141;28;20960;-78
2022/07/18 06:42:36;;;;;;;5.57;1.60;;;26.20;44.00;;;;;;5002575;28;20476;-77
2022/07/18 06:45:06;;;;;;;7.10;1.50;;;25.60;44.50;;;;;;4998919;28;20460;-77
2022/07/18 06:47:41;;;;;;;5.87;1.80;;;25.10;44.90;;;;;;5007489;28;20612;-77
2022/07/18 06:50:09;;;;;;;5.00;1.50;;;24.60;45.40;;;;;;5011648;28;21024;-77
2022/07/18 06:52:39;;;;;;;4.63;1.53;;;24.20;45.80;;;;;;5022895;28;20967;-77
2022/07/18 06:55:08;;;;;;;5.23;1.80;;;24.00;46.10;;;;;;5023488;28;20563;-77
2022/07/18 06:57:36;;;;;;;8.30;1.53;;;23.80;46.40;;;;;;5024249;28;20467;-77
2022/07/18 07:00:06;;;;;;;5.40;1.57;;;23.60;47.00;;;;;;5024308;28;20513;-77
2022/07/18 07:02:34;;;;;;;5.67;1.67;;;23.50;47.40;;;;;;5023279;28;20579;-77
2022/07/18 07:05:04;;;;;;;4.23;1.43;;;23.40;47.50;;;;;;5023619;28;20476;-77
2022/07/18 07:07:32;;;;;;;5.13;1.57;;;23.30;47.60;;;;;;5028820;28;20963;-77
2022/07/18 07:10:00;;;;;;;7.97;1.80;;;23.20;47.60;;;;;;5025064;28;20480;-77
2022/07/18 07:12:28;;;;;;;6.30;1.70;;;23.20;47.70;;;;;;5024646;28;20476;-77
2022/07/18 07:14:56;;;;;;;8.53;2.00;;;23.00;47.80;;;;;;5025007;28;20567;-77
2022/07/18 07:17:24;;;;;;;5.77;1.47;;;23.00;47.90;;;;;;5022452;28;20484;-77
2022/07/18 07:19:52;;;;;;;5.70;1.90;;;22.90;48.20;;;;;;5022264;28;20971;-77
2022/07/18 07:22:21;;;;;;;5.50;1.70;;;22.90;48.30;;;;;;5020698;28;20466;-77
2022/07/18 07:24:49;;;;;;;6.93;1.80;;;22.80;48.30;;;;;;5021714;28;20988;-77
2022/07/18 07:27:17;;;;;;;4.50;1.37;;;22.80;48.50;;;;;;5021804;28;20478;-77
2022/07/18 07:29:45;;;;;;;5.20;1.80;;;22.80;48.60;;;;;;5019938;28;20516;-77
2022/07/18 07:32:13;;;;;;;5.07;1.63;;;22.90;48.70;;;;;;5020782;28;20490;-77
2022/07/18 07:34:41;;;;;;;18.30;2.70;;;22.90;48.80;;;;;;5023286;28;20469;-77
2022/07/18 07:37:09;;;;;;;6.00;2.40;;;22.90;48.90;;;;;;5022069;28;20840;-77
2022/07/18 07:39:38;;;;;;;7.27;2.33;;;22.90;49.00;;;;;;5020325;28;20467;-77
2022/07/18 07:42:06;;;;;;;11.10;4.47;;;23.00;49.10;;;;;;5023084;28;20953;-77
2022/07/18 07:44:34;;;;;;;8.83;3.00;;;23.00;49.10;;;;;;5024063;28;20465;-77
2022/07/18 07:47:02;;;;;;;10.50;2.37;;;23.00;49.10;;;;;;5021201;28;20491;-77
2022/07/18 07:49:33;;;;;;;7.97;2.03;;;23.10;49.10;;;;;;5020043;28;20588;-77
2022/07/18 07:52:01;;;;;;;9.47;2.10;;;23.20;49.10;;;;;;5018214;28;20824;-77
2022/07/18 07:54:29;;;;;;;4.27;1.67;;;23.20;49.10;;;;;;5020903;28;20952;-77
2022/07/18 07:56:59;;;;;;;6.67;2.03;;;23.20;49.00;;;;;;5007369;28;20496;-77
2022/07/18 07:59:27;;;;;;;6.73;1.87;;;23.30;49.00;;;;;;5007448;28;20467;-77
2022/07/18 08:01:54;;;;;;;7.00;1.83;;;23.30;49.00;;;;;;5018478;28;20938;-77
2022/07/18 08:04:23;;;;;;;7.30;1.70;;;23.40;49.00;;;;;;5020855;28;21258;-77
2022/07/18 08:06:51;;;;;;;6.80;2.00;;;23.40;49.00;;;;;;5022128;28;20480;-77
2022/07/18 08:09:19;;;;;;;6.03;1.60;;;23.50;49.00;;;;;;5017706;28;20485;-77
2022/07/18 08:11:47;;;;;;;12.80;2.33;;;23.50;48.90;;;;;;5016215;28;20456;-77
2022/07/18 08:14:16;;;;;;;7.70;2.40;;;23.60;48.90;;;;;;5018885;28;20481;-77
2022/07/18 08:16:44;;;;;;;5.70;1.60;;;23.60;49.00;;;;;;5022110;28;21008;-77
2022/07/18 08:19:12;;;;;;;9.30;2.97;;;23.70;48.90;;;;;;5018806;28;20494;-77
2022/07/18 08:21:40;;;;;;;9.33;2.50;;;23.70;48.70;;;;;;5019208;28;20836;-77
2022/07/18 08:24:08;;;;;;;4.60;1.63;;;23.80;48.50;;;;;;5021032;28;20454;-77
2022/07/18 08:26:38;;;;;;;4.93;1.60;;;23.90;48.50;;;;;;5019922;28;20490;-77
2022/07/18 08:29:07;;;;;;;8.10;1.87;;;23.90;48.50;;;;;;5008708;28;20481;-77
2022/07/18 08:31:37;;;;;;;5.77;2.20;;;24.00;48.30;;;;;;5022336;28;20489;-77
2022/07/18 08:34:05;;;;;;;13.23;4.03;;;24.00;48.30;;;;;;5018570;28;20463;-77
2022/07/18 08:36:33;;;;;;;8.90;2.47;;;24.10;48.20;;;;;;5014786;28;20519;-77
2022/07/18 08:39:06;;;;;;;7.37;2.00;;;24.20;48.20;;;;;;5021377;28;20477;-77
2022/07/18 08:41:36;;;;;;;7.00;1.83;;;24.20;48.00;;;;;;5024928;28;20465;-77
2022/07/18 08:44:06;;;;;;;5.93;1.60;;;24.30;47.90;;;;;;5022549;28;20474;-77
2022/07/18 08:46:39;;;;;;;9.07;2.33;;;24.30;47.70;;;;;;5024119;28;20499;-77
2022/07/18 08:49:08;;;;;;;6.70;1.83;;;24.40;47.60;;;;;;5023900;28;20993;-77
2022/07/18 08:51:36;;;;;;;5.87;1.70;;;24.50;47.50;;;;;;5027320;28;20465;-77
2022/07/18 08:54:04;;;;;;;5.03;1.77;;;24.50;47.50;;;;;;5025829;28;20474;-77
2022/07/18 08:56:32;;;;;;;8.30;1.83;;;24.60;47.40;;;;;;5025227;28;20487;-77
2022/07/18 08:59:02;;;;;;;6.17;1.63;;;24.70;47.30;;;;;;5013484;28;20461;-77
2022/07/18 09:01:30;;;;;;;8.63;2.00;;;24.70;47.10;;;;;;5022403;28;20920;-77
2022/07/18 09:06:47;;;;;;;8.20;1.93;;;24.80;47.00;;;;;;5023160;28;21159;-77
2022/07/18 09:09:16;;;;;;;6.43;1.80;;;24.90;46.90;;;;;;5029068;28;20457;-76
2022/07/18 09:11:56;;;;;;;5.87;2.03;;;25.00;46.80;;;;;;5022997;28;20461;-77
2022/07/18 09:14:36;;;;;;;6.00;1.70;;;25.00;46.70;;;;;;5022205;28;20472;-77
2022/07/18 09:17:07;;;;;;;8.93;2.17;;;25.10;46.50;;;;;;5025839;28;20487;-77
2022/07/18 09:19:38;;;;;;;9.83;2.13;;;25.20;46.50;;;;;;5023040;28;20466;-76
2022/07/18 09:22:14;;;;;;;9.93;1.80;;;25.20;46.30;;;;;;5023250;28;20472;-77
2022/07/18 09:24:53;;;;;;;4.90;1.93;;;25.30;46.10;;;;;;5024045;28;20473;-77
2022/07/18 09:27:26;;;;;;;8.10;1.70;;;25.30;46.00;;;;;;5023880;28;20477;-77
2022/07/18 09:30:17;;;;;;;7.60;2.23;;;25.40;45.80;;;;;;5024821;28;20487;-77
2022/07/18 09:32:47;;;;;;;8.20;2.10;;;25.50;45.40;;;;;;5012012;28;20599;-77
2022/07/18 09:35:19;;;;;;;8.90;1.90;;;25.60;45.50;;;;;;5021648;28;20486;-76
2022/07/18 09:37:56;;;;;;;4.50;1.30;;;25.70;45.30;;;;;;5022511;28;20978;-77
2022/07/18 09:40:26;;;;;;;11.00;1.53;;;25.70;45.00;;;;;;5023449;28;20468;-77
2022/07/18 09:42:56;;;;;;;4.20;1.33;;;25.80;44.70;;;;;;5024233;28;20466;-77
2022/07/18 09:45:27;;;;;;;6.80;2.00;;;25.80;44.40;;;;;;5021955;28;21300;-77
2022/07/18 09:47:57;;;;;;;5.70;1.70;;;25.80;44.30;;;;;;5020077;28;20883;-77
2022/07/18 09:50:33;;;;;;;5.40;1.50;;;25.90;44.10;;;;;;5021114;28;20501;-77
2022/07/18 09:53:12;;;;;;;4.27;1.27;;;26.00;44.00;;;;;;5024195;28;20468;-77
2022/07/18 09:56:01;;;;;;;8.40;1.70;;;26.10;43.80;;;;;;5023195;28;20882;-76
2022/07/18 09:58:32;;;;;;;4.90;1.47;;;26.20;43.60;;;;;;5020553;28;20488;-77
2022/07/18 10:01:02;;;;;;;5.10;1.70;;;26.30;43.60;;;;;;5022426;28;20505;-77
2022/07/18 10:03:30;;;;;;;5.20;1.23;;;26.40;43.60;;;;;;5023586;28;20568;-77
2022/07/18 10:06:01;;;;;;;3.70;1.20;;;26.50;43.50;;;;;;5021624;28;20498;-77
2022/07/18 10:08:32;;;;;;;7.10;1.90;;;26.50;43.50;;;;;;5020533;28;21429;-76
2022/07/18 10:11:02;;;;;;;5.80;1.60;;;26.60;43.40;;;;;;5022739;28;20486;-77
2022/07/18 10:13:32;;;;;;;5.23;1.43;;;26.60;43.30;;;;;;5023008;28;21052;-77
2022/07/18 10:16:00;;;;;;;4.20;1.40;;;26.70;43.10;;;;;;5022090;28;20501;-77
2022/07/18 10:18:30;;;;;;;6.10;1.77;;;26.70;43.10;;;;;;5022602;28;20468;-77
2022/07/18 10:21:05;;;;;;;8.43;1.40;;;26.70;42.70;;;;;;5019269;28;20463;-77
2022/07/18 10:23:35;;;;;;;8.03;1.90;;;26.70;42.40;;;;;;5019427;28;21266;-77
2022/07/18 10:26:14;;;;;;;5.80;1.43;;;26.80;42.60;;;;;;5021806;28;20489;-77
2022/07/18 10:29:11;;;;;;;5.67;1.67;;;26.80;42.50;;;;;;5021267;28;20468;-77
2022/07/18 10:31:42;;;;;;;6.00;1.50;;;26.90;42.40;;;;;;4975505;28;20498;-77
2022/07/18 10:34:11;;;;;;;5.50;1.40;;;27.00;42.40;;;;;;5022100;28;20563;-77
2022/07/18 10:37:02;;;;;;;5.80;1.50;;;27.10;42.20;;;;;;5021594;28;20881;-77
2022/07/18 10:39:34;;;;;;;4.27;1.20;;;27.20;42.10;;;;;;5020206;28;20991;-76
2022/07/18 10:42:20;;;;;;;5.13;1.50;;;27.20;42.10;;;;;;5022775;28;20480;-77
2022/07/18 10:44:48;;;;;;;4.97;1.77;;;27.20;42.00;;;;;;5020328;28;20462;-76
2022/07/18 10:47:20;;;;;;;3.70;1.20;;;27.30;42.00;;;;;;5022338;28;20489;-77
2022/07/18 10:50:08;;;;;;;6.20;1.57;;;27.40;41.80;;;;;;5021853;28;20510;-77
2022/07/18 10:53:00;;;;;;;5.00;1.40;;;27.30;41.80;;;;;;5021302;28;20466;-77
2022/07/18 10:55:32;;;;;;;4.90;1.50;;;27.30;41.70;;;;;;5022423;28;20527;-76
2022/07/18 10:58:21;;;;;;;6.73;1.60;;;27.30;41.80;;;;;;5008201;28;20469;-77
2022/07/18 11:00:54;;;;;;;7.13;1.90;;;27.40;41.70;;;;;;5022006;28;20483;-77
2022/07/18 11:03:31;;;;;;;5.03;1.40;;;27.40;41.80;;;;;;5020447;28;20489;-77
2022/07/18 11:05:59;;;;;;;4.60;1.60;;;27.50;41.80;;;;;;5024100;28;20493;-77
2022/07/18 11:08:33;;;;;;;4.93;1.40;;;27.50;41.90;;;;;;5019140;28;20471;-77
2022/07/18 11:11:12;;;;;;;7.90;1.57;;;27.60;41.60;;;;;;5021924;28;20481;-77
2022/07/18 11:13:48;;;;;;;5.20;1.40;;;27.60;41.40;;;;;;5020964;28;20469;-77
2022/07/18 11:16:18;;;;;;;5.97;1.43;;;27.70;41.50;;;;;;5021811;28;20491;-76
2022/07/18 11:19:29;;;;;;;4.93;1.37;;;27.70;41.50;;;;;;5021046;28;20556;-77
2022/07/18 11:21:59;;;;;;;4.53;1.33;;;27.70;41.40;;;;;;5019840;28;20480;-77
2022/07/18 11:24:29;;;;;;;12.13;1.67;;;27.80;41.50;;;;;;5021845;28;20479;-77
2022/07/18 11:26:57;;;;;;;4.70;1.20;;;27.80;41.40;;;;;;5021540;28;20502;-77
2022/07/18 11:29:25;;;;;;;6.33;1.20;;;27.90;41.40;;;;;;5020624;28;20472;-76
2022/07/18 11:31:55;;;;;;;6.87;2.10;;;27.90;41.30;;;;;;5020231;28;20491;-77
2022/07/18 11:34:24;;;;;;;4.90;1.43;;;28.00;41.30;;;;;;5020956;28;20515;-77
2022/07/18 11:37:13;;;;;;;6.20;1.83;;;28.00;41.30;;;;;;5024195;28;20921;-77
2022/07/18 11:39:42;;;;;;;10.60;1.80;;;28.10;41.20;;;;;;5022277;28;20556;-76
2022/07/18 11:42:12;;;;;;;7.07;1.40;;;28.20;41.20;;;;;;5019408;28;20459;-77
2022/07/18 11:44:40;;;;;;;6.20;1.73;;;28.30;41.10;;;;;;5014061;28;21038;-77
2022/07/18 11:47:10;;;;;;;7.83;1.70;;;28.40;41.00;;;;;;5005710;28;20500;-77
2022/07/18 11:49:39;;;;;;;9.23;1.60;;;28.40;41.00;;;;;;5021373;28;20508;-77
2022/07/18 11:52:08;;;;;;;6.80;1.70;;;28.40;40.90;;;;;;5021320;28;20485;-77
2022/07/18 11:54:36;;;;;;;4.73;1.90;;;28.50;40.90;;;;;;5022638;28;21031;-77
2022/07/18 11:57:06;;;;;;;7.80;1.40;;;28.50;40.70;;;;;;5022415;28;20502;-77
2022/07/18 11:59:40;;;;;;;4.53;1.80;;;28.40;40.70;;;;;;5024544;28;20477;-76
2022/07/18 12:02:08;;;;;;;11.13;2.00;;;28.40;40.60;;;;;;5019360;28;20561;-77
2022/07/18 12:04:37;;;;;;;6.57;1.80;;;28.40;40.50;;;;;;5020649;28;20461;-77
2022/07/18 12:07:15;;;;;;;5.43;1.60;;;28.50;40.70;;;;;;5022683;28;20929;-77
2022/07/18 12:09:43;;;;;;;7.47;1.50;;;28.60;40.60;;;;;;5022637;28;20473;-77
2022/07/18 12:12:15;;;;;;;6.33;1.40;;;28.70;40.60;;;;;;5021301;28;20495;-77
2022/07/18 12:15:39;;;;;;;4.30;1.37;;;28.70;40.40;;;;;;5001121;28;20711;-77
2022/07/18 12:18:28;;;;;;;3.93;1.10;;;28.80;40.40;;;;;;5005737;28;20480;-77
2022/07/18 12:21:08;;;;;;;8.70;1.50;;;28.80;40.00;;;;;;5006224;28;20980;-77
2022/07/18 12:23:36;;;;;;;5.93;1.60;;;29.00;40.00;;;;;;5003699;28;20479;-77
2022/07/18 12:26:04;;;;;;;8.47;1.37;;;29.00;39.90;;;;;;5002385;28;20495;-77
2022/07/18 12:36:57;;;;;;;5.60;1.40;;;29.00;39.50;;;;;;5030945;28;21112;-77
2022/07/18 12:39:31;;;;;;;7.53;1.80;;;29.00;39.80;;;;;;5028192;28;20518;-76
2022/07/18 12:42:01;;;;;;;7.40;2.03;;;29.00;39.70;;;;;;5030403;28;20979;-77
2022/07/18 12:44:29;;;;;;;5.90;1.80;;;29.00;39.70;;;;;;5032799;28;20451;-77
2022/07/18 12:46:58;;;;;;;4.77;1.47;;;29.10;39.60;;;;;;5034158;28;20943;-76
2022/07/18 12:49:26;;;;;;;7.43;1.40;;;29.10;39.50;;;;;;5039157;28;20577;-75
2022/07/18 12:51:55;;;;;;;4.43;1.27;;;29.10;39.50;;;;;;5032047;28;20487;-77
2022/07/18 12:54:23;;;;;;;4.73;1.50;;;29.10;39.50;;;;;;5032865;28;20561;-76
2022/07/18 12:56:51;;;;;;;6.10;1.33;;;29.20;39.50;;;;;;5030319;28;20927;-76
2022/07/18 12:59:19;;;;;;;5.87;2.00;;;29.20;39.40;;;;;;5023875;28;20472;-77
2022/07/18 13:01:47;;;;;;;8.93;1.90;;;29.20;39.40;;;;;;5025851;28;20487;-77
2022/07/18 13:04:15;;;;;;;6.70;1.77;;;29.20;39.40;;;;;;5025782;28;20467;-77
2022/07/18 13:06:43;;;;;;;6.70;1.57;;;29.30;39.50;;;;;;5023442;28;20491;-77
2022/07/18 13:09:12;;;;;;;11.80;1.60;;;29.30;39.40;;;;;;5023385;28;20482;-77
2022/07/18 13:11:43;;;;;;;4.83;1.60;;;29.40;39.30;;;;;;5024276;28;20474;-76
2022/07/18 13:14:10;;;;;;;6.20;1.70;;;29.50;39.30;;;;;;5027199;28;20460;-77